createdAt,value
2023-02-08T00:01:10.005Z,99.90
2023-02-08T00:03:40.955Z,99.90
2023-02-08T00:06:12.916Z,99.90
2023-02-08T00:08:44.728Z,99.90
2023-02-08T00:11:15.628Z,99.90
2023-02-08T00:13:46.868Z,99.90
2023-02-08T00:16:18.554Z,99.90
2023-02-08T00:18:49.513Z,99.90
2023-02-08T00:21:20.540Z,99.90
2023-02-08T00:23:51.443Z,99.90
2023-02-08T00:26:22.359Z,99.90
2023-02-08T00:28:53.392Z,99.90
2023-02-08T00:31:24.354Z,99.90
2023-02-08T00:33:55.270Z,99.90
2023-02-08T00:36:26.115Z,99.90
2023-02-08T00:38:57.146Z,99.90
2023-02-08T00:41:28.090Z,99.90
2023-02-08T00:43:59.001Z,99.90
2023-02-08T00:46:29.890Z,99.90
2023-02-08T00:49:00.824Z,99.90
2023-02-08T00:51:31.777Z,99.90
2023-02-08T00:54:02.688Z,99.90
2023-02-08T00:56:33.599Z,99.90
2023-02-08T00:59:04.470Z,99.90
2023-02-08T01:01:35.758Z,99.90
2023-02-08T01:04:07.179Z,99.90
2023-02-08T01:06:38.060Z,99.90
2023-02-08T01:09:08.948Z,99.90
2023-02-08T01:11:39.818Z,99.90
2023-02-08T01:14:10.847Z,99.90
2023-02-08T01:16:41.735Z,99.90
2023-02-08T01:19:12.655Z,99.90
2023-02-08T01:21:44.454Z,99.90
2023-02-08T01:24:15.658Z,99.90
2023-02-08T01:26:46.619Z,99.90
2023-02-08T01:29:17.729Z,99.90
2023-02-08T01:31:48.768Z,99.90
2023-02-08T01:34:19.666Z,99.90
2023-02-08T01:36:50.636Z,99.90
2023-02-08T01:39:21.558Z,99.90
2023-02-08T01:41:52.474Z,99.90
2023-02-08T01:45:00.894Z,99.90
2023-02-08T01:47:32.140Z,99.90
2023-02-08T01:50:03.290Z,99.90
2023-02-08T01:52:34.265Z,99.90
2023-02-08T01:55:31.960Z,99.90
2023-02-08T01:58:08.275Z,99.90
2023-02-08T02:00:39.461Z,99.90
2023-02-08T02:03:10.739Z,99.90
2023-02-08T02:06:00.538Z,99.90
2023-02-08T02:08:31.663Z,99.90
2023-02-08T02:11:02.676Z,99.90
2023-02-08T02:13:34.041Z,99.90
2023-02-08T02:16:05.579Z,99.90
2023-02-08T02:18:36.657Z,99.90
2023-02-08T02:21:16.245Z,99.90
2023-02-08T02:24:25.392Z,99.90
2023-02-08T02:27:10.092Z,99.90
2023-02-08T02:30:21.496Z,99.90
2023-02-08T02:33:19.909Z,99.90
2023-02-08T02:36:16.185Z,99.90
2023-02-08T02:38:56.301Z,99.90
2023-02-08T02:41:59.103Z,99.90
2023-02-08T02:44:47.593Z,99.90
2023-02-08T02:48:09.801Z,99.90
2023-02-08T02:50:53.972Z,99.90
2023-02-08T02:54:17.440Z,99.90
2023-02-08T02:56:52.775Z,99.90
2023-02-08T02:59:24.986Z,99.90
2023-02-08T03:01:56.795Z,99.90
2023-02-08T03:04:33.474Z,99.90
2023-02-08T03:07:41.285Z,99.90
2023-02-08T03:10:57.134Z,99.90
2023-02-08T03:13:42.886Z,99.90
2023-02-08T03:16:30.614Z,99.90
2023-02-08T03:19:54.997Z,99.90
2023-02-08T03:22:37.215Z,99.90
2023-02-08T03:25:17.588Z,99.90
2023-02-08T03:28:29.039Z,99.90
2023-02-08T03:31:33.831Z,99.90
2023-02-08T03:34:19.872Z,99.90
2023-02-08T03:37:20.694Z,99.90
2023-02-08T03:40:06.926Z,99.90
2023-02-08T03:42:40.090Z,99.90
2023-02-08T03:45:21.674Z,99.90
2023-02-08T03:47:55.131Z,99.90
2023-02-08T03:50:27.536Z,99.90
2023-02-08T03:52:58.917Z,99.90
2023-02-08T03:55:34.470Z,99.90
2023-02-08T03:58:10.042Z,99.90
2023-02-08T04:00:48.916Z,99.90
2023-02-08T04:03:29.704Z,99.90
2023-02-08T04:06:00.722Z,99.90
2023-02-08T04:08:31.601Z,99.90
2023-02-08T04:11:02.497Z,99.90
2023-02-08T04:13:33.444Z,99.90
2023-02-08T04:16:04.744Z,99.90
2023-02-08T04:18:35.677Z,99.90
2023-02-08T04:21:06.749Z,99.90
2023-02-08T04:23:37.663Z,99.90
2023-02-08T04:26:09.489Z,99.90
2023-02-08T04:28:40.489Z,99.90
2023-02-08T04:31:11.417Z,99.90
2023-02-08T04:33:42.371Z,99.90
2023-02-08T04:36:13.451Z,99.90
2023-02-08T04:38:44.347Z,99.90
2023-02-08T04:41:15.296Z,99.90
2023-02-08T04:43:46.350Z,99.90
2023-02-08T04:46:17.238Z,99.90
2023-02-08T04:48:48.165Z,99.90
2023-02-08T04:51:19.037Z,99.90
2023-02-08T04:53:49.962Z,99.90
2023-02-08T04:56:20.851Z,99.90
2023-02-08T04:58:51.759Z,99.90
2023-02-08T05:01:22.666Z,99.90
2023-02-08T05:03:53.647Z,99.90
2023-02-08T05:06:24.526Z,99.90
2023-02-08T05:08:55.453Z,99.90
2023-02-08T05:11:27.053Z,99.90
2023-02-08T05:13:58.019Z,99.90
2023-02-08T05:16:29.175Z,99.90
2023-02-08T05:19:00.126Z,99.90
2023-02-08T05:21:31.091Z,99.90
2023-02-08T05:24:02.099Z,99.90
2023-02-08T05:26:33.725Z,99.90
2023-02-08T05:29:04.925Z,99.90
2023-02-08T05:31:35.984Z,99.90
2023-02-08T05:34:07.020Z,99.90
2023-02-08T05:36:37.943Z,99.90
2023-02-08T05:39:08.869Z,99.90
2023-02-08T05:41:39.739Z,99.90
2023-02-08T05:44:10.687Z,99.90
2023-02-08T05:46:41.627Z,99.90
2023-02-08T05:49:12.553Z,99.90
2023-02-08T05:51:43.780Z,99.90
2023-02-08T05:54:14.670Z,99.90
2023-02-08T05:56:45.630Z,99.90
2023-02-08T05:59:16.566Z,99.90
2023-02-08T06:01:47.458Z,99.90
2023-02-08T06:04:18.450Z,99.90
2023-02-08T06:06:49.372Z,99.90
2023-02-08T06:09:20.373Z,99.90
2023-02-08T06:11:51.298Z,99.90
2023-02-08T06:14:22.180Z,99.90
2023-02-08T06:16:53.050Z,99.90
2023-02-08T06:19:23.958Z,99.90
2023-02-08T06:21:55.449Z,99.90
2023-02-08T06:24:26.674Z,99.90
2023-02-08T06:26:57.696Z,99.90
2023-02-08T06:29:28.691Z,99.90
2023-02-08T06:31:59.660Z,99.90
2023-02-08T06:34:30.636Z,99.90
2023-02-08T06:37:02.329Z,99.90
2023-02-08T06:39:33.279Z,99.90
2023-02-08T06:42:04.252Z,99.90
2023-02-08T06:44:35.376Z,99.90
2023-02-08T06:47:06.347Z,99.90
2023-02-08T06:49:37.229Z,99.90
2023-02-08T06:52:08.452Z,99.90
2023-02-08T06:54:39.347Z,99.90
2023-02-08T06:57:12.966Z,99.90
2023-02-08T06:59:44.179Z,99.90
2023-02-08T07:02:18.062Z,99.90
2023-02-08T07:04:49.210Z,99.90
2023-02-08T07:07:20.091Z,99.90
2023-02-08T07:09:50.982Z,99.90
2023-02-08T07:12:21.958Z,99.90
2023-02-08T07:14:52.833Z,99.90
2023-02-08T07:17:23.741Z,99.90
2023-02-08T07:19:54.703Z,99.90
2023-02-08T07:22:25.595Z,99.90
2023-02-08T07:24:56.466Z,99.90
2023-02-08T07:27:27.434Z,99.90
2023-02-08T07:29:58.285Z,99.90
2023-02-08T07:32:29.213Z,99.90
2023-02-08T07:35:00.127Z,99.90
2023-02-08T07:37:33.006Z,99.90
2023-02-08T07:40:04.105Z,99.90
2023-02-08T07:42:35.032Z,99.90
2023-02-08T07:45:06.148Z,99.90
2023-02-08T07:47:37.068Z,99.90
2023-02-08T07:50:08.308Z,99.90
2023-02-08T07:52:39.267Z,99.90
2023-02-08T07:55:11.833Z,99.90
2023-02-08T07:57:47.781Z,99.90
2023-02-08T08:00:19.465Z,99.90
2023-02-08T08:02:51.295Z,99.90
2023-02-08T08:05:23.687Z,99.90
2023-02-08T08:07:54.583Z,99.90
2023-02-08T08:10:25.522Z,99.90
2023-02-08T08:12:56.405Z,99.90
2023-02-08T08:15:27.533Z,99.90
2023-02-08T08:17:58.480Z,99.90
2023-02-08T08:20:42.083Z,99.90
2023-02-08T08:23:13.068Z,99.90
2023-02-08T08:25:43.931Z,99.90
2023-02-08T08:28:14.927Z,99.90
2023-02-08T08:30:46.308Z,99.90
2023-02-08T08:33:17.286Z,99.90
2023-02-08T08:35:48.193Z,99.90
2023-02-08T08:38:19.098Z,99.90
2023-02-08T08:40:49.977Z,99.90
2023-02-08T08:43:20.908Z,99.90
2023-02-08T08:45:53.084Z,99.90
2023-02-08T08:48:24.127Z,99.90
2023-02-08T08:50:55.396Z,99.90
2023-02-08T08:53:26.406Z,99.90
2023-02-08T08:55:59.817Z,99.90
2023-02-08T08:58:30.841Z,99.90
2023-02-08T09:01:01.987Z,99.90
2023-02-08T09:03:32.970Z,99.90
2023-02-08T09:06:04.090Z,99.90
2023-02-08T09:08:35.127Z,99.90
2023-02-08T09:11:12.395Z,99.90
2023-02-08T09:13:44.294Z,99.90
2023-02-08T09:16:19.628Z,99.90
2023-02-08T09:18:51.344Z,99.90
2023-02-08T09:21:26.998Z,99.90
2023-02-08T09:23:58.086Z,99.90
2023-02-08T09:26:29.404Z,99.90
2023-02-08T09:29:00.960Z,99.90
2023-02-08T09:31:36.568Z,99.90
2023-02-08T09:34:08.087Z,99.90
2023-02-08T09:36:41.033Z,99.90
2023-02-08T09:39:18.813Z,99.90
2023-02-08T09:42:11.253Z,99.90
2023-02-08T09:45:07.152Z,99.90
2023-02-08T09:47:55.297Z,99.90
2023-02-08T09:50:42.700Z,99.90
2023-02-08T09:53:32.526Z,99.90
2023-02-08T09:56:08.980Z,99.90
2023-02-08T09:58:50.138Z,99.90
2023-02-08T10:01:34.796Z,99.70
2023-02-08T10:04:14.565Z,99.90
2023-02-08T10:06:45.652Z,99.90
2023-02-08T10:09:21.304Z,99.90
2023-02-08T10:12:18.819Z,99.90
2023-02-08T10:15:29.051Z,99.70
2023-02-08T10:18:34.733Z,99.20
2023-02-08T10:21:26.802Z,99.00
2023-02-08T10:24:38.672Z,99.00
2023-02-08T10:27:16.809Z,98.60
2023-02-08T10:30:18.063Z,99.00
2023-02-08T10:33:03.147Z,98.70
2023-02-08T10:35:44.506Z,98.80
2023-02-08T10:38:21.393Z,98.70
2023-02-08T10:41:01.077Z,98.20
2023-02-08T10:43:37.662Z,98.10
2023-02-08T10:46:33.599Z,98.10
2023-02-08T10:49:22.586Z,98.30
2023-02-08T10:51:54.049Z,98.30
2023-02-08T10:54:24.950Z,97.60
2023-02-08T10:57:20.007Z,96.60
2023-02-08T11:00:01.494Z,95.80
2023-02-08T11:02:40.716Z,95.10
2023-02-08T11:05:17.870Z,92.20
2023-02-08T11:08:16.931Z,93.20
2023-02-08T11:11:10.699Z,91.50
2023-02-08T11:13:44.869Z,91.00
2023-02-08T11:16:25.849Z,90.50
2023-02-08T11:19:05.530Z,90.10
2023-02-08T11:21:40.373Z,90.30
2023-02-08T11:24:40.231Z,90.60
2023-02-08T11:27:42.007Z,89.00
2023-02-08T11:30:20.988Z,89.50
2023-02-08T11:33:18.607Z,88.50
2023-02-08T11:36:15.831Z,88.00
2023-02-08T11:38:46.833Z,87.20
2023-02-08T11:41:20.273Z,86.00
2023-02-08T11:44:26.243Z,86.00
2023-02-08T11:47:01.877Z,85.60
2023-02-08T11:49:40.011Z,85.50
2023-02-08T11:52:54.086Z,84.90
2023-02-08T11:55:29.580Z,85.20
2023-02-08T11:58:24.744Z,85.30
2023-02-08T12:01:20.579Z,84.90
2023-02-08T12:03:51.744Z,83.20
2023-02-08T12:06:47.724Z,83.00
2023-02-08T12:09:48.211Z,82.40
2023-02-08T12:12:36.258Z,83.00
2023-02-08T12:15:24.503Z,80.90
2023-02-08T12:18:24.504Z,81.50
2023-02-08T12:21:24.736Z,80.70
2023-02-08T12:24:15.650Z,79.80
2023-02-08T12:27:33.452Z,79.50
2023-02-08T12:30:30.435Z,80.20
2023-02-08T12:33:19.241Z,79.30
2023-02-08T12:36:35.224Z,79.60
2023-02-08T12:39:50.395Z,79.20
2023-02-08T12:42:30.263Z,78.20
2023-02-08T12:45:50.364Z,79.00
2023-02-08T12:48:45.899Z,77.90
2023-02-08T12:51:34.658Z,77.10
2023-02-08T12:54:13.910Z,77.00
2023-02-08T12:56:56.922Z,77.70
2023-02-08T12:59:44.970Z,77.40
2023-02-08T13:02:22.175Z,76.50
2023-02-08T13:04:59.647Z,76.10
2023-02-08T13:07:43.045Z,75.50
2023-02-08T13:10:38.379Z,75.30
2023-02-08T13:13:30.303Z,75.20
2023-02-08T13:16:09.605Z,75.30
2023-02-08T13:18:49.244Z,74.80
2023-02-08T13:21:30.561Z,75.90
2023-02-08T13:24:03.087Z,74.80
2023-02-08T13:26:38.723Z,73.20
2023-02-08T13:29:19.232Z,72.20
2023-02-08T13:32:09.528Z,73.80
2023-02-08T13:34:53.178Z,74.20
2023-02-08T13:37:31.003Z,72.30
2023-02-08T13:40:28.526Z,73.10
2023-02-08T13:43:05.504Z,73.10
2023-02-08T13:45:51.961Z,72.70
2023-02-08T13:48:23.412Z,73.70
2023-02-08T13:50:57.105Z,72.40
2023-02-08T13:53:40.796Z,71.70
2023-02-08T13:56:13.226Z,71.90
2023-02-08T13:58:50.216Z,71.90
2023-02-08T14:01:28.734Z,72.30
2023-02-08T14:04:34.180Z,72.40
2023-02-08T14:07:32.948Z,72.10
2023-02-08T14:10:37.414Z,71.30
2023-02-08T14:13:53.490Z,71.80
2023-02-08T14:16:41.344Z,72.70
2023-02-08T14:19:18.337Z,72.70
2023-02-08T14:22:15.479Z,72.50
2023-02-08T14:25:06.515Z,73.10
2023-02-08T14:27:42.931Z,73.40
2023-02-08T14:30:16.833Z,73.50
2023-02-08T14:32:54.872Z,74.50
2023-02-08T14:35:27.932Z,75.30
2023-02-08T14:38:20.785Z,74.70
2023-02-08T14:40:57.345Z,75.30
2023-02-08T14:43:34.050Z,75.40
2023-02-08T14:46:39.265Z,76.20
2023-02-08T14:49:15.895Z,76.70
2023-02-08T14:52:09.528Z,76.80
2023-02-08T14:54:53.988Z,77.70
2023-02-08T14:57:31.898Z,78.60
2023-02-08T15:00:15.823Z,79.60
2023-02-08T15:02:48.514Z,80.00
2023-02-08T15:05:36.113Z,80.10
2023-02-08T15:08:07.237Z,80.60
2023-02-08T15:10:45.065Z,80.20
2023-02-08T15:13:26.961Z,80.70
2023-02-08T15:15:58.864Z,80.80
2023-02-08T15:18:32.383Z,81.00
2023-02-08T15:21:07.687Z,81.90
2023-02-08T15:23:38.589Z,83.10
2023-02-08T15:26:23.617Z,84.20
2023-02-08T15:28:55.323Z,83.70
2023-02-08T15:31:33.967Z,83.70
2023-02-08T15:34:04.942Z,84.00
2023-02-08T15:36:38.820Z,83.60
2023-02-08T15:39:48.026Z,83.50
2023-02-08T15:42:25.290Z,84.10
2023-02-08T15:44:56.835Z,84.00
2023-02-08T15:47:37.857Z,84.60
2023-02-08T15:50:21.541Z,84.80
2023-02-08T15:52:59.688Z,84.90
2023-02-08T15:55:40.088Z,85.20
2023-02-08T15:58:41.651Z,85.30
2023-02-08T16:01:19.218Z,85.70
2023-02-08T16:03:55.809Z,85.40
2023-02-08T16:06:29.682Z,85.50
2023-02-08T16:09:03.418Z,85.60
2023-02-08T16:11:36.331Z,86.30
2023-02-08T16:14:07.857Z,87.50
2023-02-08T16:16:40.108Z,88.20
2023-02-08T16:19:22.932Z,88.80
2023-02-08T16:22:13.732Z,88.80
2023-02-08T16:24:46.940Z,89.20
2023-02-08T16:27:30.519Z,89.60
2023-02-08T16:30:01.565Z,90.00
2023-02-08T16:32:36.205Z,90.30
2023-02-08T16:35:25.272Z,90.40
2023-02-08T16:38:02.510Z,93.60
2023-02-08T16:40:53.659Z,92.00
2023-02-08T16:43:32.726Z,91.90
2023-02-08T16:46:16.256Z,92.20
2023-02-08T16:48:56.890Z,92.30
2023-02-08T16:51:31.852Z,92.30
2023-02-08T16:54:09.729Z,92.50
2023-02-08T16:56:42.524Z,97.90
2023-02-08T16:59:14.260Z,93.30
2023-02-08T17:01:48.064Z,93.20
2023-02-08T17:04:19.009Z,93.30
2023-02-08T17:06:50.055Z,93.40
2023-02-08T17:09:20.923Z,93.50
2023-02-08T17:11:51.873Z,93.60
2023-02-08T17:14:22.780Z,93.70
2023-02-08T17:16:53.658Z,93.70
2023-02-08T17:19:25.241Z,99.90
2023-02-08T17:21:56.111Z,96.60
2023-02-08T17:24:28.028Z,96.60
2023-02-08T17:26:59.258Z,96.80
2023-02-08T17:29:30.222Z,96.90
2023-02-08T17:32:01.129Z,97.20
2023-02-08T17:34:32.288Z,97.70
2023-02-08T17:37:03.639Z,97.90
2023-02-08T17:39:34.544Z,98.10
2023-02-08T17:42:05.539Z,98.40
2023-02-08T17:44:36.650Z,98.20
2023-02-08T17:47:07.609Z,97.80
2023-02-08T17:49:38.561Z,98.10
2023-02-08T17:52:09.437Z,98.40
2023-02-08T17:54:40.297Z,98.90
2023-02-08T17:57:11.879Z,98.90
2023-02-08T17:59:42.910Z,98.50
2023-02-08T18:02:13.823Z,99.90
2023-02-08T18:04:44.818Z,99.90
2023-02-08T18:07:15.729Z,99.90
2023-02-08T18:09:46.700Z,99.90
2023-02-08T18:12:17.642Z,99.90
2023-02-08T18:14:49.024Z,99.90
2023-02-08T18:17:20.389Z,99.90
2023-02-08T18:19:52.370Z,99.90
2023-02-08T18:22:25.106Z,99.90
2023-02-08T18:24:56.297Z,99.90
2023-02-08T18:27:27.448Z,99.90
2023-02-08T18:29:58.760Z,99.90
2023-02-08T18:32:29.685Z,99.90
2023-02-08T18:35:03.413Z,99.90
2023-02-08T18:37:36.794Z,99.90
2023-02-08T18:40:09.008Z,99.90
2023-02-08T18:42:39.930Z,99.90
2023-02-08T18:45:10.827Z,99.90
2023-02-08T18:47:41.730Z,99.90
2023-02-08T18:50:12.814Z,99.90
2023-02-08T18:52:43.738Z,99.90
2023-02-08T18:55:14.675Z,99.90
2023-02-08T18:57:47.891Z,99.90
2023-02-08T19:00:19.109Z,99.90
2023-02-08T19:02:49.992Z,99.90
2023-02-08T19:05:20.869Z,99.90
2023-02-08T19:07:51.775Z,99.90
2023-02-08T19:10:22.870Z,99.90
2023-02-08T19:12:53.770Z,99.90
2023-02-08T19:15:24.663Z,99.90
2023-02-08T19:17:56.011Z,99.90
2023-02-08T19:20:26.917Z,99.90
2023-02-08T19:22:58.837Z,99.90
2023-02-08T19:25:30.242Z,99.90
2023-02-08T19:28:01.185Z,99.90
2023-02-08T19:30:32.307Z,99.90
2023-02-08T19:33:03.444Z,99.90
2023-02-08T19:35:38.178Z,99.90
2023-02-08T19:38:09.136Z,99.90
2023-02-08T19:40:40.155Z,99.90
2023-02-08T19:43:11.137Z,99.90
2023-02-08T19:45:44.811Z,99.90
2023-02-08T19:48:15.932Z,99.90
2023-02-08T19:51:01.222Z,99.90
2023-02-08T19:53:33.281Z,99.90
2023-02-08T19:56:06.853Z,99.90
2023-02-08T19:58:39.297Z,99.90
2023-02-08T20:01:16.137Z,99.90
2023-02-08T20:03:48.698Z,99.90
2023-02-08T20:06:24.528Z,99.90
2023-02-08T20:08:56.529Z,99.90
2023-02-08T20:11:31.167Z,99.90
2023-02-08T20:14:02.972Z,99.90
2023-02-08T20:16:34.768Z,99.90
2023-02-08T20:19:05.726Z,99.90
2023-02-08T20:21:39.929Z,99.90
2023-02-08T20:24:11.053Z,99.90
2023-02-08T20:26:45.121Z,99.90
2023-02-08T20:29:17.952Z,99.90
2023-02-08T20:31:53.657Z,99.90
2023-02-08T20:34:24.696Z,99.90
2023-02-08T20:37:06.826Z,99.90
2023-02-08T20:39:38.581Z,99.90
2023-02-08T20:42:10.115Z,99.90
2023-02-08T20:44:41.248Z,99.90
2023-02-08T20:47:13.889Z,99.90
2023-02-08T20:49:46.067Z,99.90
2023-02-08T20:52:17.810Z,99.90
2023-02-08T20:54:50.752Z,99.90
2023-02-08T20:57:22.139Z,99.90
2023-02-08T20:59:53.444Z,99.90
2023-02-08T21:02:25.030Z,99.90
2023-02-08T21:04:57.405Z,99.90
2023-02-08T21:07:28.770Z,99.90
2023-02-08T21:10:00.045Z,99.90
2023-02-08T21:12:33.566Z,99.90
2023-02-08T21:15:05.344Z,99.90
2023-02-08T21:17:40.625Z,99.90
2023-02-08T21:20:12.873Z,99.90
2023-02-08T21:22:43.777Z,99.90
2023-02-08T21:25:15.236Z,99.90
2023-02-08T21:27:46.494Z,99.90
2023-02-08T21:30:17.889Z,99.90
2023-02-08T21:32:48.831Z,99.90
2023-02-08T21:35:19.730Z,99.90
2023-02-08T21:37:50.664Z,99.90
2023-02-08T21:40:21.637Z,99.90
2023-02-08T21:42:52.786Z,99.90
2023-02-08T21:45:24.001Z,99.90
2023-02-08T21:47:56.401Z,99.90
2023-02-08T21:50:46.967Z,99.90
2023-02-08T21:53:36.362Z,99.90
2023-02-08T21:56:09.901Z,99.90
2023-02-08T21:58:40.819Z,99.90
2023-02-08T22:01:11.772Z,99.90
2023-02-08T22:03:42.839Z,99.90
2023-02-08T22:06:13.990Z,99.90
2023-02-08T22:08:44.905Z,99.90
2023-02-08T22:11:15.842Z,99.90
2023-02-08T22:13:46.745Z,99.90
2023-02-08T22:16:18.425Z,99.90
2023-02-08T22:18:50.203Z,99.90
2023-02-08T22:21:21.077Z,99.90
2023-02-08T22:23:52.376Z,99.90
2023-02-08T22:26:23.420Z,99.90
2023-02-08T22:28:54.495Z,99.90
2023-02-08T22:31:25.551Z,99.90
2023-02-08T22:33:56.761Z,99.90
2023-02-08T22:36:27.762Z,99.90
2023-02-08T22:38:58.776Z,99.90
2023-02-08T22:41:29.964Z,99.90
2023-02-08T22:44:00.923Z,99.90
2023-02-08T22:46:31.829Z,99.90
2023-02-08T22:49:02.822Z,99.90
2023-02-08T22:51:33.701Z,99.90
2023-02-08T22:54:04.774Z,99.90
2023-02-08T22:56:35.716Z,99.90
2023-02-08T22:59:06.676Z,99.90
2023-02-08T23:01:37.730Z,99.90
2023-02-08T23:04:08.917Z,99.90
2023-02-08T23:06:39.891Z,99.90
2023-02-08T23:09:12.868Z,99.90
2023-02-08T23:11:43.742Z,99.90
2023-02-08T23:14:15.119Z,99.90
2023-02-08T23:16:47.155Z,99.90
2023-02-08T23:19:19.253Z,99.90
2023-02-08T23:21:50.101Z,99.90
2023-02-08T23:24:20.974Z,99.90
2023-02-08T23:26:51.976Z,99.90
2023-02-08T23:29:23.015Z,99.90
2023-02-08T23:31:54.090Z,99.90
2023-02-08T23:34:25.108Z,99.90
2023-02-08T23:36:55.984Z,99.90
2023-02-08T23:39:26.881Z,99.90
2023-02-08T23:41:57.766Z,99.90
2023-02-08T23:44:28.706Z,99.90
2023-02-08T23:46:59.630Z,99.90
2023-02-08T23:49:30.558Z,99.90
2023-02-08T23:52:01.435Z,99.90
2023-02-08T23:54:32.380Z,99.90
2023-02-08T23:57:03.966Z,99.90
2023-02-08T23:59:35.334Z,99.90
